Spirit Of Mount Vernon — WDC4321 — position and weather

sailwx.info

Track history (hours):
 
Tides and Currents Weather Stations Pressure Air Temp Water Temp Dewpoint Dewpoint Depression Visibility Wind Speed Wind Dir Waves Ship Positions

Spirit Of Mount Vernon

Owner: Spirit Cruises, washington, DC. More information available from US FCC via Universal Licensing System and Coast Guard Vessel Documentation Center.

Last reported at 2018-Jul-19 18:55 UTC. Time now 2018-Jul-20 02:48 UTC.
Position N 38°52' W 077°01'.

Length 50 m; draft 2.1 m.

Type: Passenger vessel. MMSI: 367022930.

Date/timePositionNaut miles runAvg speedWind from/ knotsBaromVisibWave heightAir tempDewpointWater temp
2018-Jul-19 18:55N 38°52' W 077°01'3 8.1
2018-Jul-19 18:30N 38°49' W 077°02'5 9.7
2018-Jul-19 18:00N 38°44' W 077°02'3 3.8
2018-Jul-19 17:08N 38°42' W 077°05'1 9.8
2018-Jul-19 17:00N 38°42' W 077°03'0 0.0
2018-Jul-19 15:59N 38°42' W 077°03'1 0.6
2018-Jul-19 13:49N 38°42' W 077°05'3 8.3
2018-Jul-19 13:28N 38°44' W 077°02'5 9.6
2018-Jul-19 12:59N 38°48' W 077°02'4 7.8
2018-Jul-19 12:28N 38°52' W 077°01'0 0.0
2018-Jul-19 11:59N 38°52' W 077°01'0 0.0
2018-Jul-19 11:29N 38°52' W 077°01'0 0.0
2018-Jul-19 10:59N 38°52' W 077°01'0 0.0
2018-Jul-19 10:29N 38°52' W 077°01'0 0.0
2018-Jul-19 09:59N 38°52' W 077°01'0 0.0
2018-Jul-19 09:29N 38°52' W 077°01'0 0.0
2018-Jul-19 08:55N 38°52' W 077°01'0 0.0
2018-Jul-19 08:29N 38°52' W 077°01'0 0.0
2018-Jul-19 07:59N 38°52' W 077°01'0 0.0
2018-Jul-19 07:29N 38°52' W 077°01'0 0.0
2018-Jul-19 06:59N 38°52' W 077°01'0 0.0
2018-Jul-19 06:28N 38°52' W 077°01'0 0.0
2018-Jul-19 05:58N 38°52' W 077°01'0 0.0
2018-Jul-19 05:29N 38°52' W 077°01'0 0.0
2018-Jul-19 04:58N 38°52' W 077°01'0 0.0
2018-Jul-19 04:29N 38°52' W 077°01'0 0.0
2018-Jul-19 03:59N 38°52' W 077°01'0 0.0
2018-Jul-19 03:29N 38°52' W 077°01'0 0.0
2018-Jul-19 02:59N 38°52' W 077°01'0 0.0
2018-Jul-19 02:29N 38°52' W 077°01'0 0.0
2018-Jul-19 01:58N 38°52' W 077°01'0 0.0
2018-Jul-19 01:28N 38°52' W 077°01'0 0.0
2018-Jul-19 00:59N 38°52' W 077°01'0 0.0
2018-Jul-19 00:29N 38°52' W 077°01'0 0.0
2018-Jul-18 23:59N 38°52' W 077°01'0 0.0
2018-Jul-18 23:28N 38°52' W 077°01'0 0.0
2018-Jul-18 22:59N 38°52' W 077°01'0 0.0
2018-Jul-18 22:29N 38°52' W 077°01'0 0.0
2018-Jul-18 21:58N 38°52' W 077°01'0 0.0
2018-Jul-18 21:26N 38°52' W 077°01'0 0.0
2018-Jul-18 20:55N 38°52' W 077°01'0 0.0
2018-Jul-18 20:29N 38°52' W 077°01'0 0.0
2018-Jul-18 19:58N 38°52' W 077°01'0 0.0
2018-Jul-18 19:28N 38°52' W 077°01'0 0.6
2018-Jul-18 18:58N 38°52' W 077°01'4 8.8
2018-Jul-18 18:29N 38°48' W 077°02'5 9.8
2018-Jul-18 17:59N 38°43' W 077°02'2 2.4
2018-Jul-18 17:05N 38°42' W 077°04'110.1
2018-Jul-18 17:00N 38°42' W 077°03'1 1.3
2018-Jul-18 16:09N 38°42' W 077°05'1 9.6
2018-Jul-18 16:00N 38°42' W 077°03'1 0.7
2018-Jul-18 13:52N 38°42' W 077°05'3 8.0
2018-Jul-18 13:30N 38°44' W 077°02'5 8.9
2018-Jul-18 12:58N 38°49' W 077°02'4 7.7
2018-Jul-18 12:29N 38°52' W 077°01'0 0.0
2018-Jul-18 12:00N 38°52' W 077°01'0 0.0
2018-Jul-18 11:26N 38°52' W 077°01'0 0.0
2018-Jul-18 10:26N 38°52' W 077°01'0 0.0
2018-Jul-18 09:59N 38°52' W 077°01'0 0.0
2018-Jul-18 09:29N 38°52' W 077°01'0 0.0
2018-Jul-18 08:59N 38°52' W 077°01'0 0.0
2018-Jul-18 08:29N 38°52' W 077°01'0 0.0
2018-Jul-18 07:59N 38°52' W 077°01'0 0.0
2018-Jul-18 07:29N 38°52' W 077°01'0 0.0
2018-Jul-18 06:59N 38°52' W 077°01'0 0.0
2018-Jul-18 06:30N 38°52' W 077°01'0 0.0
2018-Jul-18 05:59N 38°52' W 077°01'0 0.0
2018-Jul-18 05:29N 38°52' W 077°01'0 0.0
2018-Jul-18 04:56N 38°52' W 077°01'0 0.0
2018-Jul-18 04:29N 38°52' W 077°01'0 0.0
2018-Jul-18 03:59N 38°52' W 077°01'0 0.0
2018-Jul-18 03:29N 38°52' W 077°01'0 0.0
2018-Jul-18 02:59N 38°52' W 077°01'0 0.0
2018-Jul-18 02:26N 38°52' W 077°01'0 0.0
2018-Jul-18 01:59N 38°52' W 077°01'0 0.0
2018-Jul-18 01:29N 38°52' W 077°01'0 0.0
2018-Jul-18 00:59N 38°52' W 077°01'0 0.0
2018-Jul-18 00:23N 38°52' W 077°01'0 0.0
2018-Jul-17 23:59N 38°52' W 077°01'0 0.0
2018-Jul-17 23:29N 38°52' W 077°01'0 0.0
2018-Jul-17 22:59N 38°52' W 077°01'0 0.0
2018-Jul-17 22:29N 38°52' W 077°01'0 0.0
2018-Jul-17 21:59N 38°52' W 077°01'0 0.0
2018-Jul-17 21:29N 38°52' W 077°01'0 0.0
2018-Jul-17 20:59N 38°52' W 077°01'0 0.0
2018-Jul-17 20:29N 38°52' W 077°01'0 0.0
2018-Jul-17 19:59N 38°52' W 077°01'0 0.0
2018-Jul-17 19:23N 38°52' W 077°01'0 0.0
2018-Jul-17 18:59N 38°52' W 077°01'4 8.0
2018-Jul-17 18:30N 38°49' W 077°02'5 9.3
2018-Jul-17 17:58N 38°44' W 077°02'3 3.4
2018-Jul-17 17:08N 38°42' W 077°05'211.1
2018-Jul-17 16:59N 38°42' W 077°03'2 2.4
2018-Jul-17 16:12N 38°42' W 077°05'3 8.2
2018-Jul-17 15:54N 38°43' W 077°02'2 1.2
2018-Jul-17 13:59N 38°42' W 077°05'4 7.9
2018-Jul-17 13:27N 38°45' W 077°02'4 8.6
2018-Jul-17 13:00N 38°49' W 077°02'3 5.9
2018-Jul-17 12:27N 38°52' W 077°01'0 0.0
2018-Jul-17 12:00N 38°52' W 077°01'0 0.0
2018-Jul-17 01:26N 38°52' W 077°01'1 2.0
2018-Jul-17 00:59N 38°52' W 077°01'4 7.5
2018-Jul-17 00:29N 38°48' W 077°02'3 3.0
2018-Jul-16 23:27N 38°51' W 077°01'1 2.7
2018-Jul-16 22:55N 38°52' W 077°01'0 0.0
2018-Jul-16 22:25N 38°52' W 077°01'0 0.0
2018-Jul-16 21:55N 38°52' W 077°01'0 0.0
2018-Jul-16 21:19N 38°52' W 077°01'0 0.0
2018-Jul-16 20:55N 38°52' W 077°01'0 0.0
2018-Jul-16 20:28N 38°52' W 077°01'0 0.0
2018-Jul-15 19:34N 38°52' W 077°01'0 0.0
2018-Jul-15 19:28N 38°52' W 077°01'1 1.5
2018-Jul-15 18:59N 38°52' W 077°01'4 8.6
2018-Jul-15 18:30N 38°48' W 077°02'5 8.2
2018-Jul-15 17:57N 38°43' W 077°02'3 3.0
2018-Jul-15 17:05N 38°42' W 077°05'111.8
2018-Jul-15 17:00N 38°42' W 077°04'1 1.3
2018-Jul-15 16:06N 38°42' W 077°05'111.0
2018-Jul-15 15:59N 38°42' W 077°03'1 1.0
2018-Jul-15 15:09N 38°42' W 077°04'2 8.7
2018-Jul-15 14:56N 38°43' W 077°02'2 2.4
2018-Jul-15 14:00N 38°42' W 077°05'4 8.1
2018-Jul-15 13:30N 38°45' W 077°02'4 8.2
2018-Jul-15 12:59N 38°49' W 077°02'3 6.3
2018-Jul-15 12:30N 38°52' W 077°01'0 0.0
2018-Jul-15 12:00N 38°52' W 077°01'0 0.0
2018-Jul-15 11:30N 38°52' W 077°01'0 0.0
2018-Jul-14 19:03N 38°52' W 077°01'0 1.1
2018-Jul-14 19:00N 38°52' W 077°01'4 8.4
2018-Jul-14 18:30N 38°48' W 077°02'5 8.8
2018-Jul-14 17:59N 38°44' W 077°02'3 3.4
2018-Jul-14 17:07N 38°42' W 077°05'211.3
2018-Jul-14 16:59N 38°42' W 077°03'2 1.9
2018-Jul-14 16:08N 38°42' W 077°05'110.9
2018-Jul-14 16:00N 38°42' W 077°03'1 1.1
2018-Jul-14 15:06N 38°42' W 077°05'1 9.9
2018-Jul-14 14:59N 38°42' W 077°03'1 1.2
2018-Jul-14 13:50N 38°42' W 077°05'3 8.6
2018-Jul-14 13:26N 38°45' W 077°02'4 9.1
2018-Jul-14 13:00N 38°49' W 077°02'4 7.9
2018-Jul-14 12:30N 38°52' W 077°01'0 0.0
2018-Jul-14 12:00N 38°52' W 077°01'0 0.0
2018-Jul-14 11:30N 38°52' W 077°01'0 0.0
2018-Jul-14 11:00N 38°52' W 077°01'0 0.0
2018-Jul-14 01:58N 38°52' W 077°01'0 0.3
2018-Jul-14 01:30N 38°53' W 077°01'1 1.4
2018-Jul-14 01:00N 38°52' W 077°02'4 7.1
2018-Jul-14 00:30N 38°49' W 077°02'1 1.9
2018-Jul-14 00:00N 38°48' W 077°02'4 7.1
2018-Jul-13 23:30N 38°51' W 077°01'1 2.6
2018-Jul-13 22:59N 38°52' W 077°01'0 0.0
2018-Jul-13 22:29N 38°52' W 077°01'0 0.0
2018-Jul-13 22:00N 38°52' W 077°01'0 0.0
2018-Jul-13 21:29N 38°52' W 077°01'0 0.0
2018-Jul-13 21:00N 38°52' W 077°01'0 0.0
2018-Jul-13 20:29N 38°52' W 077°01'0 0.0
2018-Jul-13 19:59N 38°52' W 077°01'0 0.0
2018-Jul-13 19:29N 38°52' W 077°01'0 0.0
2018-Jul-13 18:58N 38°52' W 077°01'4 8.3
2018-Jul-13 18:29N 38°48' W 077°02'5 9.4
2018-Jul-13 18:00N 38°44' W 077°02'3 3.4
2018-Jul-13 17:08N 38°42' W 077°05'111.5
2018-Jul-13 17:00N 38°42' W 077°03'1 1.7
2018-Jul-13 16:10N 38°42' W 077°05'2 5.6
2018-Jul-13 15:51N 38°42' W 077°03'2 0.8
2018-Jul-13 13:50N 38°42' W 077°05'4 9.4
2018-Jul-13 13:27N 38°45' W 077°02'5 9.9
2018-Jul-13 12:59N 38°49' W 077°02'3 5.7
2018-Jul-13 12:27N 38°52' W 077°01'0 0.0
2018-Jul-13 12:00N 38°52' W 077°01'0 0.0
2018-Jul-13 11:27N 38°52' W 077°01'0 0.0
2018-Jul-12 19:03N 38°52' W 077°01'0 0.2
2018-Jul-12 18:58N 38°52' W 077°01'4 8.3
2018-Jul-12 18:29N 38°48' W 077°02'4 9.0
2018-Jul-12 18:00N 38°44' W 077°02'3 3.4
2018-Jul-12 17:07N 38°42' W 077°05'111.2
2018-Jul-12 17:00N 38°42' W 077°03'1 1.5
2018-Jul-12 16:07N 38°42' W 077°05'111.8
2018-Jul-12 16:00N 38°42' W 077°03'2 0.7
2018-Jul-12 13:42N 38°42' W 077°05'310.6
2018-Jul-12 13:27N 38°43' W 077°02'510.7
2018-Jul-12 13:00N 38°48' W 077°02'4 7.8
2018-Jul-12 12:26N 38°52' W 077°01'0 0.0
2018-Jul-12 12:00N 38°52' W 077°01'0 0.0
2018-Jul-12 11:29N 38°52' W 077°01'0 0.0
2018-Jul-12 11:00N 38°52' W 077°01'0 0.0
2018-Jul-11 20:40N 38°52' W 077°01'0 1.3
2018-Jul-11 20:28N 38°52' W 077°01'0 0.5
2018-Jul-11 19:59N 38°52' W 077°01'0 0.0
2018-Jul-11 19:28N 38°52' W 077°01'0 0.0
2018-Jul-11 18:58N 38°52' W 077°01'5 8.3
2018-Jul-11 18:26N 38°48' W 077°02'5 9.9
2018-Jul-11 17:56N 38°43' W 077°02'3 3.4
2018-Jul-11 17:10N 38°42' W 077°05'1 1.9
2018-Jul-11 16:45N 38°42' W 077°04'1 1.2
2018-Jul-11 16:09N 38°42' W 077°05'1 2.8
2018-Jul-11 15:47N 38°42' W 077°04'1 0.5
2018-Jul-11 13:38N 38°42' W 077°05'212.0
2018-Jul-11 13:30N 38°42' W 077°03'610.8
2018-Jul-11 13:00N 38°48' W 077°02'5 9.3
2018-Jul-11 12:29N 38°52' W 077°01'0 0.0
2018-Jul-11 11:59N 38°52' W 077°01'0 0.0
2018-Jul-11 11:30N 38°52' W 077°01'0 0.0
2018-Jul-10 18:55N 38°52' W 077°01'4 7.8
2018-Jul-10 18:28N 38°49' W 077°02'510.0
2018-Jul-10 17:59N 38°44' W 077°02'3 4.0
2018-Jul-10 17:11N 38°42' W 077°05'2 9.4
2018-Jul-10 16:59N 38°42' W 077°03'1 0.4
2018-Jul-10 13:40N 38°42' W 077°05'211.0
2018-Jul-10 13:27N 38°43' W 077°02'511.2
2018-Jul-10 12:59N 38°48' W 077°02'4 8.0
2018-Jul-10 12:27N 38°52' W 077°01'0 0.0
2018-Jul-10 11:59N 38°52' W 077°01'0 0.0
2018-Jul-10 11:30N 38°52' W 077°01'  
Track history (hours):
 
Tides and Currents Weather Stations Pressure Air Temp Water Temp Dewpoint Dewpoint Depression Visibility Wind Speed Wind Dir Waves Ship Positions

Spirit Of Mount Vernon

Owner: Spirit Cruises, washington, DC. More information available from US FCC via Universal Licensing System and Coast Guard Vessel Documentation Center.

Last reported at 2018-Jul-19 18:55 UTC. Time now 2018-Jul-20 02:48 UTC.
Position N 38°52' W 077°01'.

Length 50 m; draft 2.1 m.

Type: Passenger vessel. MMSI: 367022930.

Date/timePositionNaut miles runAvg speedWind from/ knotsBaromVisibWave heightAir tempDewpointWater temp
2018-Jul-19 18:55N 38°52' W 077°01'3 8.1
2018-Jul-19 18:30N 38°49' W 077°02'5 9.7
2018-Jul-19 18:00N 38°44' W 077°02'3 3.8
2018-Jul-19 17:08N 38°42' W 077°05'1 9.8
2018-Jul-19 17:00N 38°42' W 077°03'0 0.0
2018-Jul-19 15:59N 38°42' W 077°03'1 0.6
2018-Jul-19 13:49N 38°42' W 077°05'3 8.3
2018-Jul-19 13:28N 38°44' W 077°02'5 9.6
2018-Jul-19 12:59N 38°48' W 077°02'4 7.8
2018-Jul-19 12:28N 38°52' W 077°01'0 0.0
2018-Jul-19 11:59N 38°52' W 077°01'0 0.0
2018-Jul-19 11:29N 38°52' W 077°01'0 0.0
2018-Jul-19 10:59N 38°52' W 077°01'0 0.0
2018-Jul-19 10:29N 38°52' W 077°01'0 0.0
2018-Jul-19 09:59N 38°52' W 077°01'0 0.0
2018-Jul-19 09:29N 38°52' W 077°01'0 0.0
2018-Jul-19 08:55N 38°52' W 077°01'0 0.0
2018-Jul-19 08:29N 38°52' W 077°01'0 0.0
2018-Jul-19 07:59N 38°52' W 077°01'0 0.0
2018-Jul-19 07:29N 38°52' W 077°01'0 0.0
2018-Jul-19 06:59N 38°52' W 077°01'0 0.0
2018-Jul-19 06:28N 38°52' W 077°01'0 0.0
2018-Jul-19 05:58N 38°52' W 077°01'0 0.0
2018-Jul-19 05:29N 38°52' W 077°01'0 0.0
2018-Jul-19 04:58N 38°52' W 077°01'0 0.0
2018-Jul-19 04:29N 38°52' W 077°01'0 0.0
2018-Jul-19 03:59N 38°52' W 077°01'0 0.0
2018-Jul-19 03:29N 38°52' W 077°01'0 0.0
2018-Jul-19 02:59N 38°52' W 077°01'0 0.0
2018-Jul-19 02:29N 38°52' W 077°01'0 0.0
2018-Jul-19 01:58N 38°52' W 077°01'0 0.0
2018-Jul-19 01:28N 38°52' W 077°01'0 0.0
2018-Jul-19 00:59N 38°52' W 077°01'0 0.0
2018-Jul-19 00:29N 38°52' W 077°01'0 0.0
2018-Jul-18 23:59N 38°52' W 077°01'0 0.0
2018-Jul-18 23:28N 38°52' W 077°01'0 0.0
2018-Jul-18 22:59N 38°52' W 077°01'0 0.0
2018-Jul-18 22:29N 38°52' W 077°01'0 0.0
2018-Jul-18 21:58N 38°52' W 077°01'0 0.0
2018-Jul-18 21:26N 38°52' W 077°01'0 0.0
2018-Jul-18 20:55N 38°52' W 077°01'0 0.0
2018-Jul-18 20:29N 38°52' W 077°01'0 0.0
2018-Jul-18 19:58N 38°52' W 077°01'0 0.0
2018-Jul-18 19:28N 38°52' W 077°01'0 0.6
2018-Jul-18 18:58N 38°52' W 077°01'4 8.8
2018-Jul-18 18:29N 38°48' W 077°02'5 9.8
2018-Jul-18 17:59N 38°43' W 077°02'2 2.4
2018-Jul-18 17:05N 38°42' W 077°04'110.1
2018-Jul-18 17:00N 38°42' W 077°03'1 1.3
2018-Jul-18 16:09N 38°42' W 077°05'1 9.6
2018-Jul-18 16:00N 38°42' W 077°03'1 0.7
2018-Jul-18 13:52N 38°42' W 077°05'3 8.0
2018-Jul-18 13:30N 38°44' W 077°02'5 8.9
2018-Jul-18 12:58N 38°49' W 077°02'4 7.7
2018-Jul-18 12:29N 38°52' W 077°01'0 0.0
2018-Jul-18 12:00N 38°52' W 077°01'0 0.0
2018-Jul-18 11:26N 38°52' W 077°01'0 0.0
2018-Jul-18 10:26N 38°52' W 077°01'0 0.0
2018-Jul-18 09:59N 38°52' W 077°01'0 0.0
2018-Jul-18 09:29N 38°52' W 077°01'0 0.0
2018-Jul-18 08:59N 38°52' W 077°01'0 0.0
2018-Jul-18 08:29N 38°52' W 077°01'0 0.0
2018-Jul-18 07:59N 38°52' W 077°01'0 0.0
2018-Jul-18 07:29N 38°52' W 077°01'0 0.0
2018-Jul-18 06:59N 38°52' W 077°01'0 0.0
2018-Jul-18 06:30N 38°52' W 077°01'0 0.0
2018-Jul-18 05:59N 38°52' W 077°01'0 0.0
2018-Jul-18 05:29N 38°52' W 077°01'0 0.0
2018-Jul-18 04:56N 38°52' W 077°01'0 0.0
2018-Jul-18 04:29N 38°52' W 077°01'0 0.0
2018-Jul-18 03:59N 38°52' W 077°01'0 0.0
2018-Jul-18 03:29N 38°52' W 077°01'0 0.0
2018-Jul-18 02:59N 38°52' W 077°01'0 0.0
2018-Jul-18 02:26N 38°52' W 077°01'0 0.0
2018-Jul-18 01:59N 38°52' W 077°01'0 0.0
2018-Jul-18 01:29N 38°52' W 077°01'0 0.0
2018-Jul-18 00:59N 38°52' W 077°01'0 0.0
2018-Jul-18 00:23N 38°52' W 077°01'0 0.0
2018-Jul-17 23:59N 38°52' W 077°01'0 0.0
2018-Jul-17 23:29N 38°52' W 077°01'0 0.0
2018-Jul-17 22:59N 38°52' W 077°01'0 0.0
2018-Jul-17 22:29N 38°52' W 077°01'0 0.0
2018-Jul-17 21:59N 38°52' W 077°01'0 0.0
2018-Jul-17 21:29N 38°52' W 077°01'0 0.0
2018-Jul-17 20:59N 38°52' W 077°01'0 0.0
2018-Jul-17 20:29N 38°52' W 077°01'0 0.0
2018-Jul-17 19:59N 38°52' W 077°01'0 0.0
2018-Jul-17 19:23N 38°52' W 077°01'0 0.0
2018-Jul-17 18:59N 38°52' W 077°01'4 8.0
2018-Jul-17 18:30N 38°49' W 077°02'5 9.3
2018-Jul-17 17:58N 38°44' W 077°02'3 3.4
2018-Jul-17 17:08N 38°42' W 077°05'211.1
2018-Jul-17 16:59N 38°42' W 077°03'2 2.4
2018-Jul-17 16:12N 38°42' W 077°05'3 8.2
2018-Jul-17 15:54N 38°43' W 077°02'2 1.2
2018-Jul-17 13:59N 38°42' W 077°05'4 7.9
2018-Jul-17 13:27N 38°45' W 077°02'4 8.6
2018-Jul-17 13:00N 38°49' W 077°02'3 5.9
2018-Jul-17 12:27N 38°52' W 077°01'0 0.0
2018-Jul-17 12:00N 38°52' W 077°01'0 0.0
2018-Jul-17 01:26N 38°52' W 077°01'1 2.0
2018-Jul-17 00:59N 38°52' W 077°01'4 7.5
2018-Jul-17 00:29N 38°48' W 077°02'3 3.0
2018-Jul-16 23:27N 38°51' W 077°01'1 2.7
2018-Jul-16 22:55N 38°52' W 077°01'0 0.0
2018-Jul-16 22:25N 38°52' W 077°01'0 0.0
2018-Jul-16 21:55N 38°52' W 077°01'0 0.0
2018-Jul-16 21:19N 38°52' W 077°01'0 0.0
2018-Jul-16 20:55N 38°52' W 077°01'0 0.0
2018-Jul-16 20:28N 38°52' W 077°01'0 0.0
2018-Jul-15 19:34N 38°52' W 077°01'0 0.0
2018-Jul-15 19:28N 38°52' W 077°01'1 1.5
2018-Jul-15 18:59N 38°52' W 077°01'4 8.6
2018-Jul-15 18:30N 38°48' W 077°02'5 8.2
2018-Jul-15 17:57N 38°43' W 077°02'3 3.0
2018-Jul-15 17:05N 38°42' W 077°05'111.8
2018-Jul-15 17:00N 38°42' W 077°04'1 1.3
2018-Jul-15 16:06N 38°42' W 077°05'111.0
2018-Jul-15 15:59N 38°42' W 077°03'1 1.0
2018-Jul-15 15:09N 38°42' W 077°04'2 8.7
2018-Jul-15 14:56N 38°43' W 077°02'2 2.4
2018-Jul-15 14:00N 38°42' W 077°05'4 8.1
2018-Jul-15 13:30N 38°45' W 077°02'4 8.2
2018-Jul-15 12:59N 38°49' W 077°02'3 6.3
2018-Jul-15 12:30N 38°52' W 077°01'0 0.0
2018-Jul-15 12:00N 38°52' W 077°01'0 0.0
2018-Jul-15 11:30N 38°52' W 077°01'0 0.0
2018-Jul-14 19:03N 38°52' W 077°01'0 1.1
2018-Jul-14 19:00N 38°52' W 077°01'4 8.4
2018-Jul-14 18:30N 38°48' W 077°02'5 8.8
2018-Jul-14 17:59N 38°44' W 077°02'3 3.4
2018-Jul-14 17:07N 38°42' W 077°05'211.3
2018-Jul-14 16:59N 38°42' W 077°03'2 1.9
2018-Jul-14 16:08N 38°42' W 077°05'110.9
2018-Jul-14 16:00N 38°42' W 077°03'1 1.1
2018-Jul-14 15:06N 38°42' W 077°05'1 9.9
2018-Jul-14 14:59N 38°42' W 077°03'1 1.2
2018-Jul-14 13:50N 38°42' W 077°05'3 8.6
2018-Jul-14 13:26N 38°45' W 077°02'4 9.1
2018-Jul-14 13:00N 38°49' W 077°02'4 7.9
2018-Jul-14 12:30N 38°52' W 077°01'0 0.0
2018-Jul-14 12:00N 38°52' W 077°01'0 0.0
2018-Jul-14 11:30N 38°52' W 077°01'0 0.0
2018-Jul-14 11:00N 38°52' W 077°01'0 0.0
2018-Jul-14 01:58N 38°52' W 077°01'0 0.3
2018-Jul-14 01:30N 38°53' W 077°01'1 1.4
2018-Jul-14 01:00N 38°52' W 077°02'4 7.1
2018-Jul-14 00:30N 38°49' W 077°02'1 1.9
2018-Jul-14 00:00N 38°48' W 077°02'4 7.1
2018-Jul-13 23:30N 38°51' W 077°01'1 2.6
2018-Jul-13 22:59N 38°52' W 077°01'0 0.0
2018-Jul-13 22:29N 38°52' W 077°01'0 0.0
2018-Jul-13 22:00N 38°52' W 077°01'0 0.0
2018-Jul-13 21:29N 38°52' W 077°01'0 0.0
2018-Jul-13 21:00N 38°52' W 077°01'0 0.0
2018-Jul-13 20:29N 38°52' W 077°01'0 0.0
2018-Jul-13 19:59N 38°52' W 077°01'0 0.0
2018-Jul-13 19:29N 38°52' W 077°01'0 0.0
2018-Jul-13 18:58N 38°52' W 077°01'4 8.3
2018-Jul-13 18:29N 38°48' W 077°02'5 9.4
2018-Jul-13 18:00N 38°44' W 077°02'3 3.4
2018-Jul-13 17:08N 38°42' W 077°05'111.5
2018-Jul-13 17:00N 38°42' W 077°03'1 1.7
2018-Jul-13 16:10N 38°42' W 077°05'2 5.6
2018-Jul-13 15:51N 38°42' W 077°03'2 0.8
2018-Jul-13 13:50N 38°42' W 077°05'4 9.4
2018-Jul-13 13:27N 38°45' W 077°02'5 9.9
2018-Jul-13 12:59N 38°49' W 077°02'3 5.7
2018-Jul-13 12:27N 38°52' W 077°01'0 0.0
2018-Jul-13 12:00N 38°52' W 077°01'0 0.0
2018-Jul-13 11:27N 38°52' W 077°01'0 0.0
2018-Jul-12 19:03N 38°52' W 077°01'0 0.2
2018-Jul-12 18:58N 38°52' W 077°01'4 8.3
2018-Jul-12 18:29N 38°48' W 077°02'4 9.0
2018-Jul-12 18:00N 38°44' W 077°02'3 3.4
2018-Jul-12 17:07N 38°42' W 077°05'111.2
2018-Jul-12 17:00N 38°42' W 077°03'1 1.5
2018-Jul-12 16:07N 38°42' W 077°05'111.8
2018-Jul-12 16:00N 38°42' W 077°03'2 0.7
2018-Jul-12 13:42N 38°42' W 077°05'310.6
2018-Jul-12 13:27N 38°43' W 077°02'510.7
2018-Jul-12 13:00N 38°48' W 077°02'4 7.8
2018-Jul-12 12:26N 38°52' W 077°01'0 0.0
2018-Jul-12 12:00N 38°52' W 077°01'0 0.0
2018-Jul-12 11:29N 38°52' W 077°01'0 0.0
2018-Jul-12 11:00N 38°52' W 077°01'0 0.0
2018-Jul-11 20:40N 38°52' W 077°01'0 1.3
2018-Jul-11 20:28N 38°52' W 077°01'0 0.5
2018-Jul-11 19:59N 38°52' W 077°01'0 0.0
2018-Jul-11 19:28N 38°52' W 077°01'0 0.0
2018-Jul-11 18:58N 38°52' W 077°01'5 8.3
2018-Jul-11 18:26N 38°48' W 077°02'5 9.9
2018-Jul-11 17:56N 38°43' W 077°02'3 3.4
2018-Jul-11 17:10N 38°42' W 077°05'1 1.9
2018-Jul-11 16:45N 38°42' W 077°04'1 1.2
2018-Jul-11 16:09N 38°42' W 077°05'1 2.8
2018-Jul-11 15:47N 38°42' W 077°04'1 0.5
2018-Jul-11 13:38N 38°42' W 077°05'212.0
2018-Jul-11 13:30N 38°42' W 077°03'610.8
2018-Jul-11 13:00N 38°48' W 077°02'5 9.3
2018-Jul-11 12:29N 38°52' W 077°01'0 0.0
2018-Jul-11 11:59N 38°52' W 077°01'0 0.0
2018-Jul-11 11:30N 38°52' W 077°01'0 0.0
2018-Jul-10 18:55N 38°52' W 077°01'4 7.8
2018-Jul-10 18:28N 38°49' W 077°02'510.0
2018-Jul-10 17:59N 38°44' W 077°02'3 4.0
2018-Jul-10 17:11N 38°42' W 077°05'2 9.4
2018-Jul-10 16:59N 38°42' W 077°03'1 0.4
2018-Jul-10 13:40N 38°42' W 077°05'211.0
2018-Jul-10 13:27N 38°43' W 077°02'511.2
2018-Jul-10 12:59N 38°48' W 077°02'4 8.0
2018-Jul-10 12:27N 38°52' W 077°01'0 0.0
2018-Jul-10 11:59N 38°52' W 077°01'0 0.0
2018-Jul-10 11:30N 38°52' W 077°01'  

Dump ship's entire track history